createdAt,value
2022-10-13T00:01:41.544Z,15.27
2022-10-13T00:04:07.991Z,11.77
2022-10-13T00:06:34.436Z,16.77
2022-10-13T00:09:00.805Z,12.05
2022-10-13T00:11:28.852Z,14.65
2022-10-13T00:13:57.372Z,16.17
2022-10-13T00:16:24.271Z,16.02
2022-10-13T00:18:51.378Z,18.90
2022-10-13T00:21:20.834Z,21.20
2022-10-13T00:23:47.360Z,19.17
2022-10-13T00:26:15.232Z,17.80
2022-10-13T00:28:42.009Z,20.45
2022-10-13T00:31:21.727Z,20.42
2022-10-13T00:33:49.301Z,21.60
2022-10-13T00:36:16.506Z,20.52
2022-10-13T00:38:43.769Z,17.50
2022-10-13T00:41:10.304Z,20.10
2022-10-13T00:43:58.450Z,18.85
2022-10-13T00:46:27.562Z,20.35
2022-10-13T00:48:54.303Z,19.38
2022-10-13T00:51:27.401Z,17.60
2022-10-13T00:53:54.216Z,18.88
2022-10-13T00:56:21.652Z,20.83
2022-10-13T00:58:48.822Z,18.92
2022-10-13T01:01:15.436Z,22.80
2022-10-13T01:03:41.950Z,17.98
2022-10-13T01:06:09.002Z,19.55
2022-10-13T01:08:35.566Z,21.48
2022-10-13T01:11:26.510Z,21.42
2022-10-13T01:14:26.254Z,19.75
2022-10-13T01:16:59.448Z,17.88
2022-10-13T01:19:34.961Z,17.75
2022-10-13T01:22:18.593Z,20.70
2022-10-13T01:25:04.608Z,19.30
2022-10-13T01:28:19.676Z,15.98
2022-10-13T01:30:51.096Z,20.23
2022-10-13T01:33:30.794Z,17.13
2022-10-13T01:36:26.393Z,18.63
2022-10-13T01:39:27.864Z,18.42
2022-10-13T01:41:59.819Z,20.10
2022-10-13T01:44:33.224Z,20.92
2022-10-13T01:47:00.763Z,20.70
2022-10-13T01:49:28.742Z,21.77
2022-10-13T01:51:56.469Z,21.73
2022-10-13T01:54:22.895Z,24.88
2022-10-13T01:56:56.371Z,20.42
2022-10-13T01:59:24.515Z,21.33
2022-10-13T02:02:14.687Z,18.00
2022-10-13T02:05:23.258Z,23.38
2022-10-13T02:07:56.919Z,24.73
2022-10-13T02:10:28.886Z,24.30
2022-10-13T02:12:57.745Z,23.15
2022-10-13T02:15:45.807Z,23.60
2022-10-13T02:18:15.996Z,27.83
2022-10-13T02:20:42.549Z,22.98
2022-10-13T02:23:12.641Z,21.33
2022-10-13T02:25:39.833Z,24.20
2022-10-13T02:28:06.697Z,22.75
2022-10-13T02:30:33.882Z,24.02
2022-10-13T02:33:01.379Z,20.00
2022-10-13T02:35:28.408Z,22.20
2022-10-13T02:37:54.804Z,21.27
2022-10-13T02:40:21.386Z,27.80
2022-10-13T02:42:47.754Z,20.02
2022-10-13T02:45:14.884Z,22.00
2022-10-13T02:47:41.350Z,23.25
2022-10-13T02:50:08.096Z,24.10
2022-10-13T02:52:34.835Z,26.25
2022-10-13T02:55:01.284Z,23.08
2022-10-13T02:57:27.665Z,27.83
2022-10-13T02:59:54.137Z,22.90
2022-10-13T03:02:20.901Z,21.90
2022-10-13T03:04:48.541Z,25.48
2022-10-13T03:07:15.190Z,26.77
2022-10-13T03:09:41.606Z,24.83
2022-10-13T03:12:08.067Z,24.30
2022-10-13T03:14:34.493Z,23.48
2022-10-13T03:17:01.143Z,25.77
2022-10-13T03:19:27.794Z,23.48
2022-10-13T03:21:54.210Z,23.35
2022-10-13T03:24:20.817Z,23.17
2022-10-13T03:26:47.344Z,22.02
2022-10-13T03:29:20.786Z,19.42
2022-10-13T03:31:47.360Z,18.38
2022-10-13T03:34:16.247Z,25.15
2022-10-13T03:36:42.952Z,22.10
2022-10-13T03:39:09.388Z,24.13
2022-10-13T03:41:35.803Z,22.50
2022-10-13T03:44:02.257Z,25.92
2022-10-13T03:46:29.871Z,22.23
2022-10-13T03:48:56.333Z,23.83
2022-10-13T03:51:24.270Z,23.23
2022-10-13T03:53:52.115Z,22.23
2022-10-13T03:56:22.890Z,22.17
2022-10-13T03:58:53.965Z,23.55
2022-10-13T04:01:22.375Z,22.02
2022-10-13T04:03:49.851Z,20.52
2022-10-13T04:06:16.694Z,20.50
2022-10-13T04:08:43.313Z,18.00
2022-10-13T04:11:12.631Z,21.90
2022-10-13T04:13:39.103Z,24.58
2022-10-13T04:16:13.389Z,24.35
2022-10-13T04:18:44.346Z,24.75
2022-10-13T04:21:14.673Z,20.80
2022-10-13T04:23:41.245Z,27.88
2022-10-13T04:26:07.847Z,27.45
2022-10-13T04:28:35.905Z,27.52
2022-10-13T04:31:03.063Z,20.65
2022-10-13T04:33:29.881Z,24.88
2022-10-13T04:35:56.437Z,24.25
2022-10-13T04:38:22.838Z,23.85
2022-10-13T04:40:50.066Z,23.40
2022-10-13T04:43:17.075Z,23.60
2022-10-13T04:45:43.451Z,25.42
2022-10-13T04:48:09.943Z,25.08
2022-10-13T04:50:36.494Z,23.20
2022-10-13T04:53:03.065Z,21.25
2022-10-13T04:55:29.439Z,28.77
2022-10-13T04:57:55.881Z,22.58
2022-10-13T05:00:22.385Z,22.75
2022-10-13T05:02:48.968Z,23.00
2022-10-13T05:05:15.563Z,22.02
2022-10-13T05:07:42.089Z,22.98
2022-10-13T05:10:08.950Z,21.75
2022-10-13T05:12:35.492Z,23.30
2022-10-13T05:15:02.009Z,26.40
2022-10-13T05:17:35.002Z,21.83
2022-10-13T05:20:01.962Z,24.83
2022-10-13T05:22:28.493Z,23.45
2022-10-13T05:24:54.954Z,23.65
2022-10-13T05:27:23.044Z,24.60
2022-10-13T05:29:49.438Z,27.15
2022-10-13T05:32:15.898Z,27.15
2022-10-13T05:34:42.334Z,25.83
2022-10-13T05:37:08.847Z,29.00
2022-10-13T05:39:35.784Z,24.27
2022-10-13T05:42:02.282Z,24.77
2022-10-13T05:44:28.691Z,27.10
2022-10-13T05:46:55.411Z,25.63
2022-10-13T05:49:21.856Z,21.98
2022-10-13T05:51:51.018Z,24.85
2022-10-13T05:54:20.444Z,25.75
2022-10-13T05:56:53.193Z,23.60
2022-10-13T05:59:26.100Z,25.30
2022-10-13T06:01:53.524Z,23.95
2022-10-13T06:04:23.302Z,33.47
2022-10-13T06:06:49.846Z,23.17
2022-10-13T06:09:16.585Z,21.52
2022-10-13T06:11:42.999Z,23.48
2022-10-13T06:14:09.389Z,24.63
2022-10-13T06:16:36.947Z,24.45
2022-10-13T06:19:04.615Z,24.95
2022-10-13T06:21:31.144Z,24.25
2022-10-13T06:23:57.654Z,24.25
2022-10-13T06:26:24.077Z,22.92
2022-10-13T06:28:53.425Z,24.90
2022-10-13T06:31:22.061Z,25.58
2022-10-13T06:33:48.886Z,22.65
2022-10-13T06:36:15.317Z,23.45
2022-10-13T06:38:41.703Z,23.05
2022-10-13T06:41:08.140Z,24.92
2022-10-13T06:43:40.185Z,22.13
2022-10-13T06:48:34.359Z,21.92
2022-10-13T06:51:11.382Z,22.15
2022-10-13T06:53:38.090Z,23.85
2022-10-13T06:56:05.979Z,22.77
2022-10-13T06:58:32.613Z,23.88
2022-10-13T07:00:59.042Z,23.02
2022-10-13T07:03:25.979Z,24.52
2022-10-13T07:05:52.668Z,20.20
2022-10-13T07:08:19.449Z,21.88
2022-10-13T07:10:46.218Z,17.55
2022-10-13T07:13:12.657Z,20.70
2022-10-13T07:15:40.219Z,19.33
2022-10-13T07:18:07.264Z,24.95
2022-10-13T07:20:33.937Z,22.98
2022-10-13T07:23:00.525Z,23.52
2022-10-13T07:25:26.948Z,20.75
2022-10-13T07:27:53.443Z,17.67
2022-10-13T07:30:19.972Z,21.70
2022-10-13T07:32:46.790Z,18.00
2022-10-13T07:35:13.385Z,19.48
2022-10-13T07:37:39.759Z,19.17
2022-10-13T07:40:07.403Z,17.58
2022-10-13T07:42:33.828Z,23.98
2022-10-13T07:45:00.251Z,18.83
2022-10-13T07:47:26.677Z,17.67
2022-10-13T07:49:54.614Z,19.63
2022-10-13T07:52:21.769Z,18.33
2022-10-13T07:54:48.545Z,18.40
2022-10-13T07:57:15.305Z,20.48
2022-10-13T07:59:41.705Z,17.40
2022-10-13T08:02:09.358Z,17.45
2022-10-13T08:04:36.365Z,19.52
2022-10-13T08:07:04.343Z,19.35
2022-10-13T08:09:30.985Z,15.98
2022-10-13T08:12:00.562Z,19.00
2022-10-13T08:14:28.951Z,17.92
2022-10-13T08:16:56.045Z,16.30
2022-10-13T08:19:22.578Z,17.75
2022-10-13T08:21:58.910Z,16.98
2022-10-13T08:24:26.676Z,18.17
2022-10-13T08:26:53.421Z,18.38
2022-10-13T08:29:23.368Z,21.60
2022-10-13T08:31:53.908Z,17.67
2022-10-13T08:34:21.886Z,16.25
2022-10-13T08:36:48.780Z,19.65
2022-10-13T08:39:15.190Z,18.50
2022-10-13T08:41:46.750Z,16.17
2022-10-13T08:45:05.892Z,22.40
2022-10-13T08:47:27.391Z,15.18
2022-10-13T08:49:59.957Z,19.88
2022-10-13T08:52:29.021Z,17.67
2022-10-13T08:54:56.073Z,16.45
2022-10-13T08:57:23.058Z,15.77
2022-10-13T08:59:49.791Z,18.02
2022-10-13T09:02:30.566Z,18.85
2022-10-13T09:04:59.286Z,18.05
2022-10-13T09:07:28.762Z,19.92
2022-10-13T09:09:55.619Z,17.30
2022-10-13T09:12:26.427Z,19.13
2022-10-13T09:15:05.058Z,19.08
2022-10-13T09:17:32.907Z,19.10
2022-10-13T09:19:59.252Z,18.33
2022-10-13T09:22:28.651Z,21.60
2022-10-13T09:25:11.365Z,21.80
2022-10-13T09:30:27.245Z,14.68
2022-10-13T09:33:09.089Z,17.45
2022-10-13T09:35:36.748Z,15.37
2022-10-13T09:38:22.834Z,17.02
2022-10-13T09:41:17.059Z,14.40
2022-10-13T09:43:46.491Z,17.48
2022-10-13T09:46:23.239Z,17.17
2022-10-13T09:48:55.633Z,16.52
2022-10-13T09:51:38.289Z,18.20
2022-10-13T09:56:43.994Z,15.30
2022-10-13T09:59:16.797Z,17.92
2022-10-13T10:01:45.427Z,19.08
2022-10-13T10:04:16.122Z,17.33
2022-10-13T10:06:42.972Z,20.63
2022-10-13T10:09:34.270Z,17.98
2022-10-13T10:12:03.530Z,17.02
2022-10-13T10:14:35.994Z,17.60
2022-10-13T10:19:50.005Z,16.17
2022-10-13T10:22:29.127Z,15.90
2022-10-13T10:25:04.756Z,15.07
2022-10-13T10:27:42.862Z,16.65
2022-10-13T10:30:16.759Z,15.60
2022-10-13T10:32:59.282Z,17.20
2022-10-13T10:35:44.464Z,18.45
2022-10-13T10:38:13.855Z,18.10
2022-10-13T10:41:08.318Z,16.95
2022-10-13T10:43:47.309Z,16.92
2022-10-13T10:46:24.935Z,14.05
2022-10-13T10:49:00.627Z,18.13
2022-10-13T10:51:31.129Z,20.08
2022-10-13T10:54:46.699Z,17.40
2022-10-13T10:57:31.433Z,17.27
2022-10-13T11:00:23.623Z,19.92
2022-10-13T11:02:58.704Z,16.98
2022-10-13T11:05:25.179Z,22.00
2022-10-13T11:07:51.907Z,16.35
2022-10-13T11:10:21.430Z,16.98
2022-10-13T11:13:14.254Z,16.83
2022-10-13T11:15:42.747Z,17.77
2022-10-13T11:18:46.847Z,16.42
2022-10-13T11:21:13.352Z,18.85
2022-10-13T11:23:45.144Z,14.65
2022-10-13T11:26:23.785Z,19.80
2022-10-13T11:28:50.435Z,15.85
2022-10-13T11:31:35.908Z,16.77
2022-10-13T11:34:03.346Z,19.50
2022-10-13T11:36:39.487Z,13.38
2022-10-13T11:39:28.094Z,15.25
2022-10-13T11:42:20.026Z,17.52
2022-10-13T11:45:12.138Z,18.20
2022-10-13T11:47:54.730Z,18.23
2022-10-13T11:50:44.192Z,14.07
2022-10-13T11:53:14.251Z,19.23
2022-10-13T11:55:53.487Z,15.93
2022-10-13T11:58:27.068Z,15.80
2022-10-13T12:01:14.058Z,15.30
2022-10-13T12:03:43.301Z,17.73
2022-10-13T12:06:15.781Z,20.08
2022-10-13T12:11:24.317Z,17.40
2022-10-13T12:13:51.324Z,14.20
2022-10-13T12:16:18.378Z,15.05
2022-10-13T12:18:44.910Z,16.52
2022-10-13T12:21:17.915Z,13.93
2022-10-13T12:23:44.417Z,18.20
2022-10-13T12:26:19.359Z,18.15
2022-10-13T12:29:00.966Z,18.92
2022-10-13T12:31:42.280Z,14.30
2022-10-13T12:34:21.254Z,14.77
2022-10-13T12:37:27.738Z,18.23
2022-10-13T12:39:55.886Z,13.57
2022-10-13T12:42:26.548Z,14.32
2022-10-13T12:44:53.038Z,12.93
2022-10-13T12:47:39.747Z,12.90
2022-10-13T12:50:25.225Z,14.30
2022-10-13T12:52:53.601Z,13.50
2022-10-13T12:55:21.776Z,11.13
2022-10-13T12:57:50.667Z,14.15
2022-10-13T13:00:22.189Z,12.07
2022-10-13T13:02:52.483Z,11.00
2022-10-13T13:05:37.752Z,14.93
2022-10-13T13:08:06.072Z,12.27
2022-10-13T13:10:32.477Z,10.27
2022-10-13T13:13:13.862Z,11.88
2022-10-13T13:15:41.436Z,15.77
2022-10-13T13:18:26.357Z,12.00
2022-10-13T13:20:53.563Z,11.20
2022-10-13T13:23:20.871Z,14.32
2022-10-13T13:25:47.535Z,11.07
2022-10-13T13:28:15.816Z,12.00
2022-10-13T13:30:42.555Z,11.07
2022-10-13T13:33:09.467Z,12.38
2022-10-13T13:35:37.158Z,13.35
2022-10-13T13:38:04.161Z,9.95
2022-10-13T13:40:31.473Z,8.73
2022-10-13T13:42:57.962Z,12.05
2022-10-13T13:45:27.293Z,11.32
2022-10-13T13:47:59.605Z,10.82
2022-10-13T13:50:32.163Z,10.02
2022-10-13T13:52:58.875Z,11.70
2022-10-13T13:55:26.270Z,9.45
2022-10-13T13:57:52.727Z,10.00
2022-10-13T14:00:19.416Z,10.70
2022-10-13T14:02:46.588Z,10.27
2022-10-13T14:05:13.007Z,12.73
2022-10-13T14:07:40.227Z,12.95
2022-10-13T14:10:08.268Z,10.50
2022-10-13T14:12:35.498Z,11.18
2022-10-13T14:15:01.887Z,9.95
2022-10-13T14:17:28.755Z,9.82
2022-10-13T14:19:55.483Z,10.70
2022-10-13T14:22:22.592Z,8.10
2022-10-13T14:24:49.309Z,8.68
2022-10-13T14:27:15.823Z,11.40
2022-10-13T14:29:42.292Z,10.70
2022-10-13T14:32:08.677Z,10.77
2022-10-13T14:34:35.303Z,11.20
2022-10-13T14:37:01.749Z,12.05
2022-10-13T14:39:28.579Z,10.45
2022-10-13T14:41:54.978Z,9.93
2022-10-13T14:44:22.460Z,8.65
2022-10-13T14:46:48.878Z,7.53
2022-10-13T14:49:15.299Z,10.68
2022-10-13T14:51:41.718Z,9.40
2022-10-13T14:54:08.314Z,10.18
2022-10-13T14:56:35.351Z,10.77
2022-10-13T14:59:04.162Z,9.85
2022-10-13T15:01:30.980Z,9.80
2022-10-13T15:03:57.461Z,11.30
2022-10-13T15:06:25.084Z,10.18
2022-10-13T15:08:51.982Z,8.13
2022-10-13T15:11:20.336Z,8.35
2022-10-13T15:13:46.877Z,9.07
2022-10-13T15:16:22.079Z,7.72
2022-10-13T15:18:48.522Z,10.68
2022-10-13T15:21:15.667Z,13.15
2022-10-13T15:23:42.485Z,11.68
2022-10-13T15:26:10.524Z,8.70
2022-10-13T15:28:42.186Z,8.90
2022-10-13T15:31:08.859Z,8.68
2022-10-13T15:33:35.354Z,10.13
2022-10-13T15:36:01.854Z,8.52
2022-10-13T15:38:28.286Z,9.23
2022-10-13T15:41:01.882Z,8.13
2022-10-13T15:43:28.693Z,9.88
2022-10-13T15:46:03.956Z,8.43
2022-10-13T15:48:32.204Z,9.52
2022-10-13T15:50:58.694Z,7.28
2022-10-13T15:53:25.625Z,10.13
2022-10-13T15:55:52.205Z,10.00
2022-10-13T15:58:18.808Z,9.07
2022-10-13T16:00:45.707Z,13.65
2022-10-13T16:03:16.996Z,10.55
2022-10-13T16:05:44.883Z,9.35
2022-10-13T16:08:11.976Z,13.48
2022-10-13T16:10:41.006Z,14.27
2022-10-13T16:13:08.199Z,14.27
2022-10-13T16:15:34.616Z,14.52
2022-10-13T16:18:01.271Z,13.05
2022-10-13T16:20:32.946Z,15.20
2022-10-13T16:22:59.412Z,15.77
2022-10-13T16:25:26.197Z,14.00
2022-10-13T16:27:52.665Z,12.18
2022-10-13T16:30:19.098Z,15.35
2022-10-13T16:32:45.478Z,16.25
2022-10-13T16:35:11.917Z,14.13
2022-10-13T16:37:38.418Z,15.38
2022-10-13T16:40:05.170Z,12.30
2022-10-13T16:42:31.782Z,17.52
2022-10-13T16:44:58.221Z,18.75
2022-10-13T16:47:24.964Z,17.13
2022-10-13T16:49:51.654Z,15.75
2022-10-13T16:52:18.061Z,14.02
2022-10-13T16:54:46.417Z,17.02
2022-10-13T16:57:12.922Z,20.33
2022-10-13T16:59:39.376Z,15.77
2022-10-13T17:02:05.832Z,18.25
2022-10-13T17:04:32.259Z,14.82
2022-10-13T17:06:58.669Z,18.98
2022-10-13T17:09:25.185Z,17.52
2022-10-13T17:11:51.640Z,19.75
2022-10-13T17:14:18.022Z,20.10
2022-10-13T17:16:45.114Z,20.45
2022-10-13T17:19:11.626Z,21.48
2022-10-13T17:21:38.236Z,21.20
2022-10-13T17:24:04.701Z,17.30
2022-10-13T17:26:31.502Z,18.52
2022-10-13T17:28:58.026Z,21.05
2022-10-13T17:31:25.007Z,22.77
2022-10-13T17:33:51.931Z,19.38
2022-10-13T17:36:24.699Z,18.65
2022-10-13T17:38:52.117Z,22.75
2022-10-13T17:41:19.481Z,21.63
2022-10-13T17:43:45.963Z,22.77
2022-10-13T17:46:35.825Z,20.95
2022-10-13T17:49:04.479Z,24.35
2022-10-13T17:51:30.890Z,25.05
2022-10-13T17:53:59.111Z,25.35
2022-10-13T17:56:25.802Z,26.58
2022-10-13T17:58:52.777Z,23.05
2022-10-13T18:01:38.057Z,24.42
2022-10-13T18:04:08.434Z,28.08
2022-10-13T18:06:39.793Z,28.92
2022-10-13T18:09:07.954Z,25.25
2022-10-13T18:11:34.995Z,28.08
2022-10-13T18:14:01.477Z,30.20
2022-10-13T18:16:27.903Z,29.55
2022-10-13T18:18:54.641Z,30.88
2022-10-13T18:21:24.024Z,32.72
2022-10-13T18:23:50.455Z,31.45
2022-10-13T18:26:18.860Z,33.83
2022-10-13T18:28:46.602Z,26.35
2022-10-13T18:31:15.962Z,28.02
2022-10-13T18:33:42.354Z,32.72
2022-10-13T18:36:15.458Z,29.42
2022-10-13T18:38:42.217Z,30.98
2022-10-13T18:41:08.983Z,32.00
2022-10-13T18:43:35.415Z,29.02
2022-10-13T18:46:02.547Z,30.33
2022-10-13T18:48:29.069Z,26.50
2022-10-13T18:50:55.566Z,30.27
2022-10-13T18:53:22.591Z,27.98
2022-10-13T18:55:49.063Z,27.83
2022-10-13T18:58:15.485Z,27.52
2022-10-13T19:00:41.928Z,28.20
2022-10-13T19:03:08.513Z,25.85
2022-10-13T19:05:39.223Z,26.13
2022-10-13T19:08:09.511Z,26.42
2022-10-13T19:10:36.356Z,27.60
2022-10-13T19:13:03.060Z,28.20
2022-10-13T19:15:29.467Z,27.73
2022-10-13T19:17:55.875Z,29.33
2022-10-13T19:20:22.336Z,26.90
2022-10-13T19:22:48.958Z,22.90
2022-10-13T19:25:15.422Z,24.02
2022-10-13T19:27:41.838Z,24.05
2022-10-13T19:30:08.847Z,21.98
2022-10-13T19:32:35.449Z,25.58
2022-10-13T19:35:01.885Z,23.63
2022-10-13T19:37:28.349Z,23.83
2022-10-13T19:39:54.765Z,24.98
2022-10-13T19:42:21.207Z,23.70
2022-10-13T19:44:47.590Z,24.83
2022-10-13T19:47:14.105Z,22.92
2022-10-13T19:49:42.032Z,22.25
2022-10-13T19:52:08.530Z,23.10
2022-10-13T19:54:37.004Z,26.00
2022-10-13T19:57:03.401Z,23.13
2022-10-13T19:59:29.841Z,22.08
2022-10-13T20:01:56.659Z,20.58
2022-10-13T20:04:23.220Z,20.27
2022-10-13T20:06:50.403Z,24.45
2022-10-13T20:09:18.094Z,21.63
2022-10-13T20:11:46.308Z,20.25
2022-10-13T20:14:13.301Z,26.75
2022-10-13T20:16:39.856Z,23.67
2022-10-13T20:19:06.847Z,23.38
2022-10-13T20:21:33.330Z,26.92
2022-10-13T20:23:59.750Z,22.67
2022-10-13T20:26:26.534Z,29.00
2022-10-13T20:28:54.360Z,26.42
2022-10-13T20:31:21.922Z,25.35
2022-10-13T20:33:49.628Z,29.30
2022-10-13T20:36:17.322Z,25.25
2022-10-13T20:38:43.871Z,29.23
2022-10-13T20:41:25.564Z,26.15
2022-10-13T20:43:52.925Z,27.05
2022-10-13T20:46:20.325Z,25.50
2022-10-13T20:51:33.898Z,25.95
2022-10-13T20:54:00.397Z,28.48
2022-10-13T20:56:27.070Z,28.40
2022-10-13T20:58:53.995Z,30.95
2022-10-13T21:01:21.828Z,27.75
2022-10-13T21:03:52.988Z,28.73
2022-10-13T21:06:19.702Z,29.52
2022-10-13T21:08:46.540Z,30.98
2022-10-13T21:11:14.928Z,28.15
2022-10-13T21:13:42.819Z,31.48
2022-10-13T21:16:11.517Z,34.50
2022-10-13T21:18:38.037Z,32.83
2022-10-13T21:21:09.025Z,34.45
2022-10-13T21:23:35.887Z,32.85
2022-10-13T21:26:04.358Z,35.83
2022-10-13T21:28:32.041Z,36.38
2022-10-13T21:31:02.745Z,31.65
2022-10-13T21:33:29.193Z,34.85
2022-10-13T21:35:55.607Z,33.90
2022-10-13T21:38:22.522Z,35.33
2022-10-13T21:40:53.700Z,34.97
2022-10-13T21:43:20.444Z,34.50
2022-10-13T21:45:46.864Z,36.10
2022-10-13T21:48:13.276Z,35.47
2022-10-13T21:50:39.709Z,32.78
2022-10-13T21:53:06.171Z,35.80
2022-10-13T21:55:33.028Z,37.50
2022-10-13T21:58:05.167Z,34.65
2022-10-13T22:02:58.453Z,35.83
2022-10-13T22:05:24.880Z,35.13
2022-10-13T22:07:51.322Z,34.42
2022-10-13T22:10:17.888Z,33.38
2022-10-13T22:12:44.382Z,34.10
2022-10-13T22:15:11.590Z,33.72
2022-10-13T22:17:38.222Z,36.30
2022-10-13T22:20:04.983Z,31.92
2022-10-13T22:22:31.393Z,32.28
2022-10-13T22:24:57.833Z,36.17
2022-10-13T22:27:24.302Z,33.75
2022-10-13T22:29:50.708Z,33.75
2022-10-13T22:32:17.104Z,31.83
2022-10-13T22:34:43.759Z,35.28
2022-10-13T22:37:10.127Z,33.45
2022-10-13T22:39:36.560Z,35.58
2022-10-13T22:42:03.045Z,37.05
2022-10-13T22:44:29.450Z,38.35
2022-10-13T22:46:55.898Z,41.30
2022-10-13T22:49:22.326Z,34.47
2022-10-13T22:51:48.723Z,40.33
2022-10-13T22:54:15.288Z,43.00
2022-10-13T22:56:42.046Z,38.53
2022-10-13T22:59:09.098Z,40.10
2022-10-13T23:01:36.153Z,40.63
2022-10-13T23:04:02.955Z,41.15
2022-10-13T23:06:31.350Z,43.97
2022-10-13T23:09:00.695Z,45.00
2022-10-13T23:11:27.585Z,45.03
2022-10-13T23:13:54.047Z,45.38
2022-10-13T23:16:22.778Z,47.92
2022-10-13T23:18:49.775Z,46.58
2022-10-13T23:21:18.014Z,45.15
2022-10-13T23:23:45.167Z,42.35
2022-10-13T23:26:13.916Z,48.20
2022-10-13T23:28:40.515Z,48.17
2022-10-13T23:31:11.770Z,53.45
2022-10-13T23:33:38.205Z,54.58
2022-10-13T23:36:05.559Z,51.33
2022-10-13T23:38:32.666Z,48.08
2022-10-13T23:41:07.358Z,54.13
2022-10-13T23:43:33.818Z,51.40
2022-10-13T23:46:00.898Z,53.95
2022-10-13T23:48:27.696Z,53.05
2022-10-13T23:50:54.547Z,56.50
2022-10-13T23:53:21.047Z,56.53
2022-10-13T23:55:47.544Z,54.88
2022-10-13T23:58:14.335Z,63.15
